CheckWX is a tool to help pilots better visualize weather data.  It is not intended as a substitute for an official pre-flight weather briefing.

08:50:53 UTC

YBRM METAR
Broome International Airport
Broome, Australia
Current

51 mins ago

YBRM 170800Z AUTO 16007KT 9999 // NCD 29/M07 Q1013
Observed
Jul-17 @ 08:00 UTC
Wind
  • 160° at 7 KTS
Visibility
10,000+ meters
Flight Rules
VFR
Cloud Levels
  • Clear skies
Temperature
29°C / 84°F
Dewpoint
-7°C / 19°F
Humidity
9%
Altimeter
29.91" Hg
Pressure
1012.92 hPa
Previous

51 mins ago

YBRM 170800Z AUTO 16007KT 9999 // NCD 29/M07 Q1013 RF00.0/000.0
Observed
Jul-17 @ 08:00 UTC
Wind
  • 160° at 7 KTS
Visibility
10,000+ meters
Flight Rules
VFR
Cloud Levels
  • Clear skies
Temperature
29°C / 84°F
Dewpoint
-7°C / 19°F
Humidity
9%
Altimeter
29.91" Hg
Pressure
1012.92 hPa
Previous

1 hour ago

YBRM 170730Z 16009KT CAVOK 29/M07 Q1013
Observed
Jul-17 @ 07:30 UTC
Wind
  • 160° at 9 KTS
Visibility
10,000+ meters
Flight Rules
VFR
Cloud Levels
  • Clear skies
Temperature
29°C / 84°F
Dewpoint
-7°C / 19°F
Humidity
9%
Altimeter
29.91" Hg
Pressure
1012.92 hPa